createdAt,value
2019-04-20T00:01:11.727Z,12.30
2019-04-20T00:03:45.605Z,11.70
2019-04-20T00:06:17.304Z,12.07
2019-04-20T00:08:57.834Z,11.97
2019-04-20T00:11:27.509Z,12.63
2019-04-20T00:14:01.888Z,12.10
2019-04-20T00:16:27.250Z,12.30
2019-04-20T00:19:01.559Z,12.50
2019-04-20T00:21:53.509Z,12.73
2019-04-20T00:24:34.100Z,13.30
2019-04-20T00:27:25.753Z,12.47
2019-04-20T00:29:54.803Z,12.93
2019-04-20T00:32:17.587Z,13.00
2019-04-20T00:34:45.397Z,13.07
2019-04-20T00:37:17.002Z,13.30
2019-04-20T00:39:50.815Z,12.57
2019-04-20T00:42:31.131Z,12.30
2019-04-20T00:45:01.043Z,13.87
2019-04-20T00:47:37.329Z,12.83
2019-04-20T00:50:13.345Z,12.27
2019-04-20T00:52:50.859Z,13.50
2019-04-20T00:55:04.391Z,13.47
2019-04-20T00:57:46.618Z,13.70
2019-04-20T01:00:26.856Z,13.60
2019-04-20T01:02:54.241Z,13.13
2019-04-20T01:05:43.773Z,14.10
2019-04-20T01:08:17.094Z,14.23
2019-04-20T01:10:52.313Z,13.63
2019-04-20T01:13:25.149Z,14.30
2019-04-20T01:16:05.204Z,14.27
2019-04-20T01:18:30.344Z,15.03
2019-04-20T01:21:06.773Z,13.87
2019-04-20T01:23:40.494Z,13.93
2019-04-20T01:26:11.470Z,13.80
2019-04-20T01:28:57.661Z,14.10
2019-04-20T01:31:27.291Z,14.23
2019-04-20T01:33:58.841Z,14.53
2019-04-20T01:36:41.763Z,14.23
2019-04-20T01:39:12.524Z,14.53
2019-04-20T01:41:30.499Z,15.57
2019-04-20T01:44:02.636Z,15.30
2019-04-20T01:46:38.373Z,15.23
2019-04-20T01:49:15.090Z,14.90
2019-04-20T02:10:44.083Z,15.90
2019-04-20T02:13:09.368Z,16.10
2019-04-20T02:15:45.133Z,16.40
2019-04-20T02:18:26.979Z,15.87
2019-04-20T02:21:05.192Z,15.17
2019-04-20T02:23:32.992Z,15.80
2019-04-20T02:25:50.445Z,16.17
2019-04-20T02:28:37.353Z,15.67
2019-04-20T02:31:33.063Z,15.73
2019-04-20T02:34:04.091Z,16.03
2019-04-20T02:37:09.573Z,16.47
2019-04-20T02:41:51.004Z,16.17
2019-04-20T02:46:57.509Z,15.70
2019-04-20T02:49:36.232Z,16.13
2019-04-20T02:52:04.430Z,16.73
2019-04-20T02:57:05.257Z,16.10
2019-04-20T03:01:55.300Z,17.37
2019-04-20T03:04:20.260Z,17.57
2019-04-20T03:07:01.030Z,17.23
2019-04-20T03:09:36.776Z,17.13
2019-04-20T03:12:08.014Z,17.13
2019-04-20T03:14:34.894Z,17.30
2019-04-20T03:17:18.258Z,16.90
2019-04-20T03:19:41.152Z,16.57
2019-04-20T03:22:27.334Z,17.87
2019-04-20T03:24:54.131Z,17.20
2019-04-20T03:27:33.068Z,17.63
2019-04-20T03:31:15.157Z,17.90
2019-04-20T03:33:24.549Z,18.83
2019-04-20T03:35:42.893Z,17.17
2019-04-20T03:38:12.025Z,17.77
2019-04-20T03:40:37.495Z,19.20
2019-04-20T03:42:54.885Z,17.33
2019-04-20T03:45:31.440Z,17.40
2019-04-20T03:48:10.256Z,17.97
2019-04-20T03:50:53.288Z,17.60
2019-04-20T03:53:39.823Z,18.43
2019-04-20T03:56:02.254Z,17.83
2019-04-20T03:58:52.020Z,18.43
2019-04-20T04:04:39.005Z,17.73
2019-04-20T04:06:55.884Z,17.87
2019-04-20T04:09:35.802Z,17.77
2019-04-20T04:12:38.549Z,18.27
2019-04-20T04:15:06.954Z,18.30
2019-04-20T04:17:42.338Z,17.60
2019-04-20T04:20:14.989Z,17.47
2019-04-20T04:23:07.378Z,17.60
2019-04-20T04:25:31.666Z,17.57
2019-04-20T04:28:09.316Z,18.23
2019-04-20T04:30:37.942Z,17.17
2019-04-20T04:35:50.204Z,18.07
2019-04-20T04:38:27.491Z,17.23
2019-04-20T04:41:06.465Z,18.20
2019-04-20T04:43:25.736Z,17.17
2019-04-20T04:45:41.067Z,18.13
2019-04-20T04:48:14.840Z,18.63
2019-04-20T04:50:52.722Z,17.23
2019-04-20T04:53:30.005Z,18.50
2019-04-20T04:56:00.431Z,17.77
2019-04-20T04:58:25.732Z,18.10
2019-04-20T05:01:07.708Z,18.47
2019-04-20T05:03:54.141Z,19.03
2019-04-20T05:06:24.758Z,18.37
2019-04-20T05:08:45.362Z,18.90
2019-04-20T05:11:15.081Z,17.47
2019-04-20T05:13:54.666Z,18.50
2019-04-20T05:16:38.484Z,18.23
2019-04-20T05:19:17.333Z,19.20
2019-04-20T05:22:09.528Z,19.10
2019-04-20T05:24:53.617Z,19.07
2019-04-20T05:27:46.490Z,19.30
2019-04-20T05:29:57.081Z,18.30
2019-04-20T05:32:36.134Z,19.80
2019-04-20T05:35:22.610Z,19.33
2019-04-20T05:38:01.131Z,18.97
2019-04-20T05:40:26.213Z,17.43
2019-04-20T05:43:09.256Z,18.83
2019-04-20T05:45:29.979Z,19.40
2019-04-20T05:48:07.560Z,18.93
2019-04-20T05:50:42.217Z,18.37
2019-04-20T05:53:17.062Z,18.53
2019-04-20T05:55:43.279Z,17.70
2019-04-20T05:58:23.355Z,19.23
2019-04-20T06:00:56.611Z,17.30
2019-04-20T06:03:20.317Z,18.07
2019-04-20T06:06:03.430Z,17.67
2019-04-20T06:08:41.700Z,15.77
2019-04-20T06:11:04.685Z,18.00
2019-04-20T06:13:35.072Z,14.43
2019-04-20T06:16:22.542Z,14.93
2019-04-20T06:19:09.042Z,14.33
2019-04-20T06:21:44.236Z,15.27
2019-04-20T06:24:20.707Z,15.13
2019-04-20T06:29:23.677Z,14.63
2019-04-20T06:32:05.136Z,14.50
2019-04-20T06:34:40.113Z,13.90
2019-04-20T06:37:07.098Z,13.73
2019-04-20T06:39:48.866Z,14.97
2019-04-20T06:45:05.735Z,13.33
2019-04-20T06:47:46.142Z,12.97
2019-04-20T06:49:52.977Z,13.27
2019-04-20T06:52:43.643Z,12.70
2019-04-20T06:55:08.737Z,12.73
2019-04-20T06:57:45.361Z,13.53
2019-04-20T07:00:42.183Z,13.47
2019-04-20T07:02:48.614Z,13.47
2019-04-20T07:08:07.105Z,12.50
2019-04-20T07:10:34.486Z,12.40
2019-04-20T07:12:58.017Z,12.57
2019-04-20T07:15:46.268Z,12.40
2019-04-20T07:18:33.564Z,12.97
2019-04-20T07:21:05.506Z,12.00
2019-04-20T07:23:44.872Z,11.90
2019-04-20T07:26:16.768Z,11.80
2019-04-20T07:29:16.010Z,12.03
2019-04-20T07:31:18.421Z,11.40
2019-04-20T07:33:55.113Z,11.70
2019-04-20T07:36:32.277Z,12.13
2019-04-20T07:39:05.614Z,11.63
2019-04-20T07:41:43.315Z,10.63
2019-04-20T07:44:10.662Z,10.50
2019-04-20T07:46:54.570Z,11.27
2019-04-20T07:49:16.060Z,10.97
2019-04-20T07:51:33.912Z,11.80
2019-04-20T07:54:32.619Z,10.87
2019-04-20T07:56:54.894Z,10.60
2019-04-20T07:59:17.825Z,10.57
2019-04-20T08:02:33.793Z,10.07
2019-04-20T08:05:05.722Z,11.10
2019-04-20T08:07:36.122Z,10.63
2019-04-20T08:10:04.021Z,10.77
2019-04-20T08:12:58.748Z,10.63
2019-04-20T08:15:58.771Z,11.37
2019-04-20T08:17:59.843Z,10.87
2019-04-20T08:20:35.526Z,10.80
2019-04-20T08:23:09.808Z,12.43
2019-04-20T08:25:33.976Z,11.40
2019-04-20T08:28:06.463Z,10.90
2019-04-20T08:31:14.112Z,11.10
2019-04-20T08:34:07.709Z,11.60
2019-04-20T08:36:34.610Z,11.57
2019-04-20T08:41:29.698Z,11.90
2019-04-20T08:44:21.647Z,11.53
2019-04-20T08:46:54.796Z,11.60
2019-04-20T08:49:22.478Z,12.10
2019-04-20T08:51:56.491Z,12.03
2019-04-20T08:54:21.744Z,12.00
2019-04-20T08:56:43.394Z,11.27
2019-04-20T08:59:09.378Z,11.83
2019-04-20T09:01:40.933Z,12.67
2019-04-20T09:04:19.917Z,11.73
2019-04-20T09:07:02.350Z,12.03
2019-04-20T09:09:52.631Z,11.47
2019-04-20T09:12:16.815Z,11.20
2019-04-20T09:14:33.511Z,11.00
2019-04-20T09:17:30.147Z,10.83
2019-04-20T09:20:04.735Z,11.30
2019-04-20T09:22:50.733Z,10.30
2019-04-20T09:25:51.484Z,10.43
2019-04-20T09:28:19.835Z,10.37
2019-04-20T09:30:54.272Z,11.30
2019-04-20T09:34:02.547Z,9.93
2019-04-20T09:36:40.351Z,10.47
2019-04-20T09:39:16.506Z,11.50
2019-04-20T09:42:00.934Z,10.37
2019-04-20T09:44:31.510Z,10.87
2019-04-20T09:47:01.345Z,11.67
2019-04-20T09:49:43.847Z,10.53
2019-04-20T09:52:17.245Z,8.90
2019-04-20T09:54:55.176Z,9.57
2019-04-20T09:57:29.551Z,9.70
2019-04-20T10:00:01.728Z,11.00
2019-04-20T10:02:23.939Z,11.73
2019-04-20T10:04:51.567Z,11.10
2019-04-20T10:07:27.193Z,11.80
2019-04-20T10:09:55.839Z,11.63
2019-04-20T10:12:26.796Z,10.40
2019-04-20T10:15:04.183Z,9.80
2019-04-20T10:17:35.177Z,9.37
2019-04-20T10:20:12.768Z,8.47
2019-04-20T10:22:40.561Z,7.40
2019-04-20T10:25:12.746Z,7.33
2019-04-20T10:27:45.421Z,8.10
2019-04-20T10:30:16.693Z,7.83
2019-04-20T10:32:51.961Z,7.70
2019-04-20T10:35:21.070Z,7.07
2019-04-20T10:37:57.863Z,6.63
2019-04-20T10:40:44.824Z,7.70
2019-04-20T10:43:06.113Z,6.80
2019-04-20T10:45:37.211Z,7.27
2019-04-20T10:48:08.970Z,7.33
2019-04-20T10:50:40.928Z,7.13
2019-04-20T10:53:12.156Z,6.67
2019-04-20T10:55:55.695Z,7.80
2019-04-20T10:58:29.599Z,7.07
2019-04-20T11:01:02.075Z,8.43
2019-04-20T11:03:34.476Z,8.20
2019-04-20T11:06:06.823Z,7.73
2019-04-20T11:08:38.350Z,6.60
2019-04-20T11:11:16.484Z,7.83
2019-04-20T11:13:43.450Z,6.93
2019-04-20T11:16:14.778Z,14.10
2019-04-20T11:18:47.278Z,7.33
2019-04-20T11:21:19.533Z,7.53
2019-04-20T11:23:52.027Z,7.13
2019-04-20T11:26:24.291Z,8.07
2019-04-20T11:28:58.171Z,7.77
2019-04-20T11:31:37.304Z,8.27
2019-04-20T11:34:01.416Z,9.07
2019-04-20T11:36:32.998Z,8.50
2019-04-20T11:39:07.184Z,9.20
2019-04-20T11:41:39.001Z,8.17
2019-04-20T11:44:13.765Z,8.20
2019-04-20T11:46:46.371Z,8.20
2019-04-20T11:49:17.529Z,8.10
2019-04-20T11:51:49.781Z,8.97
2019-04-20T11:54:22.007Z,8.07
2019-04-20T11:56:53.289Z,8.17
2019-04-20T11:59:27.363Z,8.23
2019-04-20T12:02:07.666Z,8.53
2019-04-20T12:04:51.881Z,8.37
2019-04-20T12:07:18.929Z,8.80
2019-04-20T12:09:51.516Z,9.47
2019-04-20T12:12:30.050Z,9.20
2019-04-20T12:14:54.898Z,8.73
2019-04-20T12:17:26.808Z,9.00
2019-04-20T12:19:59.927Z,8.90
2019-04-20T12:22:32.421Z,8.10
2019-04-20T12:25:03.279Z,9.20
2019-04-20T12:27:34.526Z,9.57
2019-04-20T12:30:09.765Z,9.03
2019-04-20T12:32:45.552Z,9.20
2019-04-20T12:35:16.091Z,9.50
2019-04-20T12:37:47.358Z,8.83
2019-04-20T12:40:20.354Z,9.03
2019-04-20T12:42:51.066Z,9.30
2019-04-20T12:45:23.894Z,9.67
2019-04-20T12:47:55.538Z,8.70
2019-04-20T12:50:28.216Z,9.17
2019-04-20T12:52:59.050Z,9.00
2019-04-20T12:55:30.555Z,8.30
2019-04-20T12:58:02.839Z,8.30
2019-04-20T13:00:43.909Z,8.80
2019-04-20T13:03:14.888Z,8.50
2019-04-20T13:05:47.738Z,9.50
2019-04-20T13:08:28.572Z,9.10
2019-04-20T13:11:20.957Z,8.20
2019-04-20T13:14:16.668Z,8.27
2019-04-20T13:16:50.121Z,7.92
2019-04-20T13:19:21.227Z,7.73
2019-04-20T13:21:52.772Z,8.30
2019-04-20T13:24:27.207Z,8.40
2019-04-20T13:27:00.598Z,8.57
2019-04-20T13:29:32.895Z,8.37
2019-04-20T13:32:05.362Z,8.33
2019-04-20T13:34:36.356Z,9.00
2019-04-20T13:37:08.447Z,7.83
2019-04-20T13:39:40.664Z,8.00
2019-04-20T13:42:19.099Z,7.83
2019-04-20T13:44:45.265Z,7.70
2019-04-20T13:47:16.840Z,7.37
2019-04-20T13:49:49.134Z,8.13
2019-04-20T13:52:20.600Z,8.00
2019-04-20T13:54:51.777Z,7.67
2019-04-20T13:57:28.314Z,8.37
2019-04-20T14:00:00.118Z,7.73
2019-04-20T14:02:40.479Z,7.53
2019-04-20T14:05:12.615Z,8.30
2019-04-20T14:07:44.971Z,7.70
2019-04-20T14:10:17.494Z,7.67
2019-04-20T14:12:58.722Z,8.13
2019-04-20T14:15:20.827Z,8.50
2019-04-20T14:17:53.027Z,7.97
2019-04-20T14:20:25.441Z,8.08
2019-04-20T14:22:56.936Z,8.05
2019-04-20T14:25:33.274Z,8.38
2019-04-20T14:28:04.945Z,8.10
2019-04-20T14:30:37.235Z,8.18
2019-04-20T14:33:08.554Z,7.92
2019-04-20T14:35:40.960Z,8.63
2019-04-20T14:38:13.039Z,8.38
2019-04-20T14:40:44.246Z,8.53
2019-04-20T14:43:15.227Z,8.55
2019-04-20T14:45:47.069Z,8.20
2019-04-20T14:48:18.613Z,9.00
2019-04-20T14:50:49.760Z,7.77
2019-04-20T14:53:20.705Z,8.73
2019-04-20T14:55:51.511Z,8.30
2019-04-20T14:58:41.571Z,8.73
2019-04-20T15:01:26.926Z,9.13
2019-04-20T15:04:04.842Z,8.80
2019-04-20T15:06:35.820Z,8.90
2019-04-20T15:09:08.774Z,9.27
2019-04-20T15:11:45.168Z,9.37
2019-04-20T15:14:16.642Z,8.90
2019-04-20T15:16:48.732Z,9.43
2019-04-20T15:19:23.442Z,8.70
2019-04-20T15:21:55.891Z,9.40
2019-04-20T15:24:27.347Z,8.50
2019-04-20T15:26:58.376Z,10.27
2019-04-20T15:29:30.422Z,9.00
2019-04-20T15:32:02.029Z,8.67
2019-04-20T15:34:33.051Z,9.57
2019-04-20T15:37:04.403Z,9.60
2019-04-20T15:39:37.023Z,9.07
2019-04-20T15:42:09.545Z,8.73
2019-04-20T15:44:40.586Z,8.47
2019-04-20T15:47:11.409Z,8.50
2019-04-20T15:49:42.521Z,8.93
2019-04-20T15:52:17.852Z,8.33
2019-04-20T15:54:47.546Z,8.70
2019-04-20T15:57:23.282Z,9.17
2019-04-20T15:59:52.606Z,9.27
2019-04-20T16:02:31.465Z,8.10
2019-04-20T16:05:18.492Z,8.27
2019-04-20T16:07:56.224Z,7.40
2019-04-20T16:10:23.315Z,7.70
2019-04-20T16:13:05.594Z,8.30
2019-04-20T16:15:27.607Z,8.37
2019-04-20T16:17:58.952Z,9.40
2019-04-20T16:20:44.165Z,8.80
2019-04-20T16:23:02.871Z,9.17
2019-04-20T16:25:41.498Z,8.73
2019-04-20T16:28:13.931Z,9.30
2019-04-20T16:30:45.961Z,9.20
2019-04-20T16:33:16.801Z,7.87
2019-04-20T16:35:52.264Z,7.57
2019-04-20T16:38:30.599Z,7.83
2019-04-20T16:41:04.209Z,7.30
2019-04-20T16:43:41.436Z,7.33
2019-04-20T16:46:10.931Z,7.43
2019-04-20T16:48:42.174Z,7.27
2019-04-20T16:51:13.335Z,7.47
2019-04-20T16:53:45.655Z,7.60
2019-04-20T16:56:18.893Z,7.47
2019-04-20T16:58:54.737Z,7.73
2019-04-20T17:01:21.644Z,8.33
2019-04-20T17:04:02.101Z,7.80
2019-04-20T17:06:26.392Z,7.60
2019-04-20T17:08:58.716Z,7.47
2019-04-20T17:11:31.730Z,7.57
2019-04-20T17:14:03.640Z,7.47
2019-04-20T17:16:35.577Z,6.90
2019-04-20T17:19:07.744Z,7.70
2019-04-20T17:21:44.499Z,7.57
2019-04-20T17:24:15.526Z,7.77
2019-04-20T17:26:52.975Z,7.23
2019-04-20T17:29:30.182Z,6.93
2019-04-20T17:32:08.455Z,6.97
2019-04-20T17:34:57.304Z,6.87
2019-04-20T17:37:13.007Z,8.10
2019-04-20T17:40:06.784Z,7.20
2019-04-20T17:42:32.458Z,7.33
2019-04-20T17:44:58.789Z,7.10
2019-04-20T17:47:44.876Z,7.00
2019-04-20T17:50:15.084Z,7.23
2019-04-20T17:52:47.476Z,6.37
2019-04-20T17:55:03.460Z,6.67
2019-04-20T17:57:35.240Z,6.43
2019-04-20T18:00:19.004Z,6.73
2019-04-20T18:03:08.339Z,6.70
2019-04-20T18:06:11.112Z,6.13
2019-04-20T18:08:35.879Z,6.13
2019-04-20T18:10:58.556Z,6.80
2019-04-20T18:13:31.967Z,6.27
2019-04-20T18:16:56.395Z,6.10
2019-04-20T18:19:22.874Z,6.93
2019-04-20T18:22:01.387Z,6.33
2019-04-20T18:25:01.913Z,6.47
2019-04-20T18:27:36.200Z,6.33
2019-04-20T18:30:01.463Z,6.80
2019-04-20T18:32:29.370Z,6.80
2019-04-20T18:35:08.627Z,6.50
2019-04-20T18:37:59.317Z,6.43
2019-04-20T18:40:27.972Z,6.63
2019-04-20T18:43:00.012Z,6.33
2019-04-20T18:45:35.220Z,6.67
2019-04-20T18:48:11.835Z,7.57
2019-04-20T18:50:37.676Z,7.53
2019-04-20T18:53:00.568Z,7.57
2019-04-20T18:55:41.684Z,6.90
2019-04-20T18:58:04.782Z,6.60
2019-04-20T19:00:42.188Z,6.47
2019-04-20T19:03:15.146Z,6.60
2019-04-20T19:05:42.118Z,6.27
2019-04-20T19:08:16.290Z,6.73
2019-04-20T19:10:54.179Z,6.67
2019-04-20T19:13:42.395Z,6.30
2019-04-20T19:16:30.668Z,6.70
2019-04-20T19:19:27.021Z,7.10
2019-04-20T19:21:48.102Z,7.10
2019-04-20T19:24:21.261Z,7.13
2019-04-20T19:26:57.446Z,9.17
2019-04-20T19:29:33.050Z,8.20
2019-04-20T19:32:17.171Z,9.53
2019-04-20T19:34:52.618Z,8.63
2019-04-20T19:37:23.212Z,7.43
2019-04-20T19:39:58.508Z,7.10
2019-04-20T19:42:31.947Z,7.30
2019-04-20T19:45:10.224Z,7.40
2019-04-20T19:47:42.980Z,7.87
2019-04-20T19:50:28.562Z,6.77
2019-04-20T19:53:01.185Z,8.50
2019-04-20T19:55:20.523Z,7.60
2019-04-20T19:57:50.774Z,7.83
2019-04-20T20:00:11.496Z,8.13
2019-04-20T20:02:43.512Z,7.67
2019-04-20T20:05:16.269Z,8.03
2019-04-20T20:07:51.150Z,9.23
2019-04-20T20:10:20.885Z,7.97
2019-04-20T20:12:58.600Z,8.87
2019-04-20T20:15:32.053Z,8.57
2019-04-20T20:18:15.293Z,8.47
2019-04-20T20:20:52.907Z,9.10
2019-04-20T20:23:05.841Z,9.17
2019-04-20T20:25:41.080Z,10.00
2019-04-20T20:28:22.214Z,9.00
2019-04-20T20:30:55.529Z,9.47
2019-04-20T20:33:36.441Z,9.57
2019-04-20T20:35:59.837Z,9.33
2019-04-20T20:38:30.789Z,9.70
2019-04-20T20:41:06.681Z,9.80
2019-04-20T20:43:40.994Z,9.60
2019-04-20T20:46:10.592Z,10.23
2019-04-20T20:48:48.131Z,9.10
2019-04-20T20:51:22.913Z,10.03
2019-04-20T20:53:51.251Z,9.70
2019-04-20T20:56:19.221Z,10.33
2019-04-20T20:58:57.325Z,9.90
2019-04-20T21:01:24.931Z,9.57
2019-04-20T21:03:52.998Z,10.27
2019-04-20T21:06:22.405Z,10.27
2019-04-20T21:08:56.016Z,9.60
2019-04-20T21:11:30.520Z,10.17
2019-04-20T21:14:01.247Z,9.97
2019-04-20T21:16:40.220Z,10.50
2019-04-20T21:19:21.442Z,10.57
2019-04-20T21:21:49.985Z,9.07
2019-04-20T21:24:26.821Z,10.40
2019-04-20T21:27:03.093Z,10.83
2019-04-20T21:29:37.803Z,10.23
2019-04-20T21:32:10.422Z,11.20
2019-04-20T21:34:36.316Z,11.53
2019-04-20T21:37:13.584Z,11.20
2019-04-20T21:39:46.445Z,11.30
2019-04-20T21:42:19.057Z,12.27
2019-04-20T21:44:50.084Z,11.03
2019-04-20T21:47:27.423Z,11.40
2019-04-20T21:50:03.150Z,11.50
2019-04-20T21:52:30.459Z,11.70
2019-04-20T21:54:56.167Z,11.53
2019-04-20T21:57:32.489Z,12.00
2019-04-20T22:00:07.061Z,11.93
2019-04-20T22:02:42.449Z,11.53
2019-04-20T22:05:07.301Z,12.43
2019-04-20T22:07:39.222Z,11.67
2019-04-20T22:10:11.660Z,12.20
2019-04-20T22:12:49.012Z,11.87
2019-04-20T22:15:22.424Z,12.23
2019-04-20T22:17:48.719Z,12.73
2019-04-20T22:20:27.231Z,13.00
2019-04-20T22:23:02.680Z,12.03
2019-04-20T22:25:44.529Z,13.37
2019-04-20T22:28:00.643Z,12.73
2019-04-20T22:30:32.207Z,13.20
2019-04-20T22:33:12.161Z,13.50
2019-04-20T22:35:49.780Z,13.20
2019-04-20T22:38:37.556Z,12.90
2019-04-20T22:41:13.966Z,13.47
2019-04-20T22:43:42.177Z,13.83
2019-04-20T22:46:17.562Z,14.20
2019-04-20T22:48:54.286Z,13.87
2019-04-20T22:51:33.631Z,14.57
2019-04-20T22:54:10.913Z,15.90
2019-04-20T22:56:42.040Z,15.60
2019-04-20T22:59:05.419Z,14.73
2019-04-20T23:01:38.765Z,15.83
2019-04-20T23:04:01.135Z,17.10
2019-04-20T23:06:37.342Z,15.47
2019-04-20T23:09:10.971Z,16.63
2019-04-20T23:11:42.107Z,16.37
2019-04-20T23:14:14.348Z,16.30
2019-04-20T23:16:50.111Z,16.40
2019-04-20T23:19:30.029Z,16.57
2019-04-20T23:21:57.487Z,16.90
2019-04-20T23:24:23.684Z,17.33
2019-04-20T23:26:55.272Z,16.17
2019-04-20T23:29:30.833Z,16.00
2019-04-20T23:32:04.079Z,18.20
2019-04-20T23:34:33.818Z,17.87
2019-04-20T23:37:09.989Z,17.83
2019-04-20T23:39:41.570Z,18.30
2019-04-20T23:42:14.477Z,17.10
2019-04-20T23:44:54.378Z,17.90
2019-04-20T23:47:28.302Z,18.10
2019-04-20T23:50:15.318Z,16.97
2019-04-20T23:52:53.945Z,18.30
2019-04-20T23:55:11.160Z,18.77
2019-04-20T23:57:39.898Z,18.57
